Time;durP1;ratioP1;P1;durP2;ratioP2;P2;SDS_P1;SDS_P2;PMS_P1;PMS_P2;Temp;Humidity;BMP_temperature;BMP_pressure;BME280_temperature;BME280_humidity;BME280_pressure;Samples;Min_cycle;Max_cycle;Signal;HPM_P1;HPM_P2
2022/03/27 00:00:01;;;;;;;14.97;11.37;;;7.80;99.90;;;;;;5000649;28;20459;-79
2022/03/27 00:02:27;;;;;;;14.30;10.77;;;8.00;99.90;;;;;;5001051;28;20470;-78
2022/03/27 00:04:54;;;;;;;17.53;11.27;;;8.00;99.90;;;;;;5000636;28;20932;-77
2022/03/27 00:07:21;;;;;;;13.53;10.70;;;8.00;99.90;;;;;;4999730;28;20452;-77
2022/03/27 00:09:48;;;;;;;12.90;11.60;;;7.90;99.90;;;;;;5000645;28;20464;-78
2022/03/27 00:12:15;;;;;;;15.97;11.93;;;7.90;99.90;;;;;;5001292;28;20508;-78
2022/03/27 00:14:42;;;;;;;12.97;10.73;;;7.80;99.90;;;;;;5001119;28;20452;-78
2022/03/27 00:17:08;;;;;;;13.70;10.43;;;7.80;99.90;;;;;;4999962;28;20481;-77
2022/03/27 00:19:35;;;;;;;17.30;11.90;;;7.80;99.90;;;;;;5000483;28;20453;-77
2022/03/27 00:22:01;;;;;;;14.60;12.07;;;7.90;99.90;;;;;;4999846;28;20493;-78
2022/03/27 00:24:28;;;;;;;17.10;13.70;;;7.80;99.90;;;;;;4999251;28;20463;-78
2022/03/27 00:26:56;;;;;;;14.83;12.60;;;7.80;99.90;;;;;;5000278;28;20996;-78
2022/03/27 00:29:22;;;;;;;17.93;11.80;;;7.70;99.90;;;;;;4999229;28;20453;-78
2022/03/27 00:31:49;;;;;;;15.70;12.07;;;7.70;99.90;;;;;;4999236;28;20440;-78
2022/03/27 00:34:18;;;;;;;15.93;11.53;;;7.60;99.90;;;;;;4999286;28;20451;-78
2022/03/27 00:36:45;;;;;;;19.70;12.30;;;7.60;99.90;;;;;;4998283;28;20487;-77
2022/03/27 00:39:12;;;;;;;14.90;11.17;;;7.50;99.90;;;;;;4997500;28;20855;-77
2022/03/27 00:41:38;;;;;;;20.43;12.57;;;7.60;99.90;;;;;;4998921;28;20639;-78
2022/03/27 00:44:07;;;;;;;15.80;12.10;;;7.40;99.90;;;;;;4998427;28;20878;-78
2022/03/27 00:46:33;;;;;;;16.37;11.90;;;7.60;99.90;;;;;;4997532;28;20494;-78
2022/03/27 00:49:00;;;;;;;13.60;12.00;;;7.40;99.90;;;;;;4999339;28;20454;-80
2022/03/27 00:51:26;;;;;;;15.43;12.23;;;7.30;99.90;;;;;;4998575;28;20439;-77
2022/03/27 00:53:54;;;;;;;15.63;13.60;;;7.30;99.90;;;;;;4998486;28;20424;-78
2022/03/27 00:56:20;;;;;;;19.60;11.70;;;7.30;99.90;;;;;;4998756;28;20434;-77
2022/03/27 00:58:47;;;;;;;14.53;11.13;;;7.20;99.90;;;;;;4998077;28;20536;-77
2022/03/27 01:01:21;;;;;;;18.33;11.80;;;7.70;99.90;;;;;;4999142;28;20520;-78
2022/03/27 01:03:49;;;;;;;12.13;10.73;;;7.40;99.90;;;;;;4998382;28;20514;-78
2022/03/27 01:06:26;;;;;;;16.67;13.13;;;7.50;99.90;;;;;;4999008;28;20424;-78
2022/03/27 01:11:37;;;;;;;16.58;12.70;;;7.30;99.90;;;;;;5015482;23;20252;-78
2022/03/27 01:14:04;;;;;;;16.30;11.60;;;7.40;99.90;;;;;;5011515;28;20231;-83
2022/03/27 01:16:39;;;;;;;16.80;12.57;;;7.40;99.90;;;;;;5012461;28;20429;-82
2022/03/27 01:19:06;;;;;;;16.03;11.93;;;7.30;99.90;;;;;;5013162;28;20400;-83
2022/03/27 01:21:36;;;;;;;16.57;11.93;;;7.40;99.90;;;;;;5012303;28;20473;-83
2022/03/27 01:24:03;;;;;;;16.83;12.10;;;7.20;99.90;;;;;;5008783;28;20493;-83
2022/03/27 01:26:30;;;;;;;16.85;11.85;;;7.20;99.90;;;;;;5007511;28;20428;-83
2022/03/27 01:28:57;;;;;;;15.83;12.40;;;7.20;99.90;;;;;;5008273;28;20571;-83
2022/03/27 01:31:24;;;;;;;17.23;11.50;;;7.20;99.90;;;;;;5008246;28;20416;-82
2022/03/27 01:33:51;;;;;;;17.57;11.77;;;7.20;99.90;;;;;;5008233;28;20472;-83
2022/03/27 01:36:25;;;;;;;16.48;10.65;;;7.10;99.90;;;;;;5008170;28;20448;-83
2022/03/27 01:38:55;;;;;;;16.07;12.50;;;7.10;99.90;;;;;;5008192;28;20213;-84
2022/03/27 01:41:22;;;;;;;17.40;13.30;;;7.20;99.90;;;;;;5013039;28;20456;-80
2022/03/27 01:43:50;;;;;;;14.18;11.43;;;7.10;99.90;;;;;;5015130;28;20439;-81
2022/03/27 01:46:16;;;;;;;20.90;12.98;;;7.10;99.90;;;;;;5012510;28;20209;-82
2022/03/27 01:48:43;;;;;;;16.67;13.57;;;6.90;99.90;;;;;;5007842;28;20203;-84
2022/03/27 01:51:10;;;;;;;17.70;13.00;;;6.80;99.90;;;;;;5008019;28;20198;-83
2022/03/27 01:53:37;;;;;;;15.52;12.82;;;6.90;99.90;;;;;;5010268;28;20464;-84
2022/03/27 01:56:06;;;;;;;16.95;13.75;;;6.90;99.90;;;;;;5008257;28;20208;-82
2022/03/27 01:58:32;;;;;;;19.38;12.85;;;6.90;99.90;;;;;;5008724;28;20207;-83
2022/03/27 02:00:59;;;;;;;13.80;11.52;;;6.80;99.90;;;;;;5008234;28;20231;-83
2022/03/27 02:03:28;;;;;;;28.48;14.05;;;6.80;99.90;;;;;;5013443;28;20237;-80
2022/03/27 02:05:55;;;;;;;20.58;12.45;;;6.80;99.90;;;;;;5002067;28;20249;-81
2022/03/27 02:08:23;;;;;;;17.90;13.02;;;6.70;99.90;;;;;;5004036;28;20210;-82
2022/03/27 02:10:49;;;;;;;14.50;12.95;;;6.70;99.90;;;;;;5005093;28;20649;-82
2022/03/27 02:13:19;;;;;;;15.02;12.93;;;6.80;99.90;;;;;;5009427;28;20229;-81
2022/03/27 02:15:47;;;;;;;19.60;13.35;;;6.70;99.90;;;;;;5008934;28;20228;-83
2022/03/27 02:18:14;;;;;;;17.08;12.13;;;6.70;99.90;;;;;;5009255;28;20211;-82
2022/03/27 02:20:41;;;;;;;20.42;13.32;;;6.70;99.90;;;;;;5014180;28;20236;-81
2022/03/27 02:23:09;;;;;;;15.27;12.25;;;6.60;99.90;;;;;;5010356;28;20224;-83
2022/03/27 02:25:35;;;;;;;20.63;13.10;;;6.60;99.90;;;;;;5008883;28;20660;-82
2022/03/27 02:28:03;;;;;;;16.55;13.80;;;6.70;99.90;;;;;;5007350;28;20205;-83
2022/03/27 02:30:31;;;;;;;15.95;13.68;;;6.60;99.90;;;;;;5009332;28;20197;-79
2022/03/27 02:32:57;;;;;;;18.23;14.10;;;6.60;99.90;;;;;;5018700;28;20217;-81
2022/03/27 02:35:24;;;;;;;18.88;15.25;;;6.60;99.90;;;;;;5017817;28;20201;-84
2022/03/27 02:37:51;;;;;;;21.13;14.85;;;6.60;99.90;;;;;;5017419;28;20201;-79
2022/03/27 02:40:18;;;;;;;21.85;16.33;;;6.50;99.90;;;;;;5015156;28;20193;-81
2022/03/27 02:42:44;;;;;;;22.95;15.68;;;6.40;99.90;;;;;;5017229;28;20222;-80
2022/03/27 02:45:11;;;;;;;21.10;16.90;;;6.30;99.90;;;;;;5017549;28;20189;-83
2022/03/27 02:47:39;;;;;;;22.92;17.83;;;6.30;99.90;;;;;;5014194;28;20635;-84
2022/03/27 02:50:06;;;;;;;19.73;16.90;;;6.40;99.90;;;;;;5010754;28;20211;-83
2022/03/27 02:52:34;;;;;;;22.08;17.30;;;6.40;99.90;;;;;;5008613;28;20223;-82
2022/03/27 02:55:01;;;;;;;23.95;18.40;;;6.30;99.90;;;;;;5007538;28;20208;-83
2022/03/27 02:57:27;;;;;;;22.63;17.17;;;6.10;99.90;;;;;;5007815;28;20268;-82
2022/03/27 02:59:55;;;;;;;20.65;17.75;;;6.10;99.90;;;;;;5018546;28;20197;-82
2022/03/27 03:02:22;;;;;;;21.63;17.60;;;6.00;99.90;;;;;;5009004;28;20221;-81
2022/03/27 03:04:50;;;;;;;26.27;18.02;;;6.00;99.90;;;;;;5002456;28;20211;-82
2022/03/27 03:07:17;;;;;;;29.63;18.77;;;6.00;99.90;;;;;;5001236;28;20216;-81
2022/03/27 03:09:44;;;;;;;25.63;18.95;;;6.00;99.90;;;;;;5002172;28;20208;-83
2022/03/27 03:12:11;;;;;;;20.42;17.92;;;6.10;99.90;;;;;;5003190;28;20308;-82
2022/03/27 03:14:38;;;;;;;26.05;18.85;;;6.10;99.90;;;;;;5002865;28;20649;-82
2022/03/27 03:17:05;;;;;;;21.83;18.05;;;6.10;99.90;;;;;;4999842;28;20204;-82
2022/03/27 03:19:32;;;;;;;27.38;20.55;;;6.20;99.90;;;;;;5008155;28;20204;-83
2022/03/27 03:22:00;;;;;;;24.90;19.80;;;6.20;99.90;;;;;;5005478;28;20232;-83
2022/03/27 03:24:27;;;;;;;25.30;20.48;;;6.20;99.90;;;;;;5008624;28;20213;-84
2022/03/27 03:26:54;;;;;;;23.17;19.80;;;6.10;99.90;;;;;;5008736;28;20702;-83
2022/03/27 03:29:22;;;;;;;24.92;18.83;;;6.10;99.90;;;;;;5008923;28;20673;-82
2022/03/27 03:31:48;;;;;;;24.77;19.60;;;6.10;99.90;;;;;;5009381;28;20570;-82
2022/03/27 03:34:15;;;;;;;24.77;20.30;;;6.10;99.90;;;;;;5009856;28;20205;-83
2022/03/27 03:36:42;;;;;;;24.73;20.08;;;6.10;99.90;;;;;;5009714;28;20231;-83
2022/03/27 03:39:10;;;;;;;26.27;20.65;;;6.00;99.90;;;;;;5011021;28;20209;-83
2022/03/27 03:41:37;;;;;;;29.23;19.90;;;5.20;99.90;;;;;;5009468;28;20248;-83
2022/03/27 03:44:04;;;;;;;25.17;21.23;;;5.90;99.90;;;;;;5009824;28;20205;-83
2022/03/27 03:46:31;;;;;;;27.05;20.65;;;5.90;99.90;;;;;;5009546;28;20235;-83
2022/03/27 03:48:57;;;;;;;28.83;20.50;;;6.00;99.90;;;;;;5011019;28;20664;-83
2022/03/27 03:51:24;;;;;;;26.52;20.13;;;6.00;99.90;;;;;;5008916;28;20201;-84
2022/03/27 03:53:50;;;;;;;28.95;21.05;;;6.00;99.90;;;;;;5008962;28;20201;-84
2022/03/27 03:56:18;;;;;;;23.33;18.83;;;6.00;99.90;;;;;;5009488;28;20243;-83
2022/03/27 03:58:45;;;;;;;26.70;21.40;;;5.80;99.90;;;;;;5009330;28;20213;-82
2022/03/27 04:01:11;;;;;;;24.38;20.65;;;5.60;99.90;;;;;;5010937;28;20634;-83
2022/03/27 04:03:38;;;;;;;29.23;20.58;;;5.60;99.90;;;;;;5009569;28;20703;-84
2022/03/27 04:06:06;;;;;;;26.08;20.80;;;5.60;99.90;;;;;;5008648;28;20212;-83
2022/03/27 04:08:34;;;;;;;31.92;20.98;;;5.60;99.90;;;;;;5008398;28;20292;-84
2022/03/27 04:11:00;;;;;;;28.35;21.05;;;5.60;99.90;;;;;;5009148;28;20205;-82
2022/03/27 04:13:28;;;;;;;29.65;22.42;;;5.70;99.90;;;;;;5008460;28;20241;-83
2022/03/27 04:15:55;;;;;;;27.95;20.55;;;5.70;99.90;;;;;;5009395;28;20197;-82
2022/03/27 04:18:21;;;;;;;27.67;21.50;;;5.70;99.90;;;;;;5008218;28;20228;-83
2022/03/27 04:20:48;;;;;;;27.90;20.25;;;5.70;99.90;;;;;;5007412;28;20257;-84
2022/03/27 04:23:14;;;;;;;25.42;20.15;;;5.70;99.90;;;;;;5006901;28;20481;-83
2022/03/27 04:25:41;;;;;;;24.02;21.35;;;5.70;99.90;;;;;;5007529;28;20201;-82
2022/03/27 04:28:10;;;;;;;28.35;21.08;;;5.70;99.90;;;;;;5007460;28;20232;-84
2022/03/27 04:30:38;;;;;;;24.52;20.27;;;5.70;99.90;;;;;;5009507;28;20273;-83
2022/03/27 04:33:05;;;;;;;29.85;21.02;;;5.60;99.90;;;;;;5007709;28;20225;-83
2022/03/27 04:35:32;;;;;;;28.05;21.35;;;5.60;99.90;;;;;;5008117;28;20668;-82
2022/03/27 04:37:59;;;;;;;26.00;20.35;;;5.60;99.90;;;;;;5009846;28;20632;-83
2022/03/27 04:40:25;;;;;;;27.88;20.92;;;5.60;99.90;;;;;;5011269;28;20212;-80
2022/03/27 04:42:52;;;;;;;24.00;19.35;;;5.60;99.90;;;;;;5015001;28;20470;-81
2022/03/27 04:45:19;;;;;;;27.38;20.10;;;5.70;99.90;;;;;;5016312;28;20209;-81
2022/03/27 04:47:47;;;;;;;25.05;20.35;;;5.60;99.90;;;;;;5004100;28;20233;-83
2022/03/27 04:50:13;;;;;;;28.27;21.42;;;5.60;99.90;;;;;;5009841;28;20447;-83
2022/03/27 04:52:40;;;;;;;26.55;21.27;;;5.60;99.90;;;;;;5009351;28;20225;-82
2022/03/27 04:55:08;;;;;;;24.35;19.92;;;5.60;99.90;;;;;;5008015;28;20197;-83
2022/03/27 04:57:37;;;;;;;28.00;21.35;;;5.60;99.90;;;;;;5011586;28;20205;-83
2022/03/27 05:00:05;;;;;;;26.33;20.73;;;5.60;99.90;;;;;;5010623;28;20232;-84
2022/03/27 05:02:33;;;;;;;25.85;20.30;;;5.50;99.90;;;;;;5009871;28;20229;-83
2022/03/27 05:05:01;;;;;;;24.05;21.23;;;5.60;99.90;;;;;;5009808;28;20205;-83
2022/03/27 05:07:28;;;;;;;29.90;21.75;;;5.50;99.90;;;;;;5009134;28;20240;-83
2022/03/27 05:09:54;;;;;;;26.20;21.08;;;5.50;99.90;;;;;;5008874;28;20209;-83
2022/03/27 05:12:21;;;;;;;31.42;23.08;;;5.50;99.90;;;;;;5008131;28;20360;-83
2022/03/27 05:14:48;;;;;;;27.15;21.80;;;5.40;99.90;;;;;;5008303;28;20212;-83
2022/03/27 05:17:14;;;;;;;27.67;20.95;;;5.50;99.90;;;;;;5007728;28;20208;-83
2022/03/27 05:19:41;;;;;;;31.88;25.30;;;5.30;99.90;;;;;;5008993;28;20209;-83
2022/03/27 05:22:09;;;;;;;33.88;25.85;;;5.40;99.90;;;;;;5008671;28;20232;-83
2022/03/27 05:24:35;;;;;;;30.15;23.95;;;5.50;99.90;;;;;;5011952;28;20201;-81
2022/03/27 05:27:02;;;;;;;32.65;23.00;;;5.50;99.90;;;;;;5014996;28;20189;-81
2022/03/27 05:29:28;;;;;;;29.88;23.40;;;5.50;99.90;;;;;;5017141;28;20197;-83
2022/03/27 05:31:57;;;;;;;30.27;23.35;;;5.50;99.90;;;;;;5017232;28;20217;-83
2022/03/27 05:34:24;;;;;;;27.38;23.38;;;5.50;99.90;;;;;;5012582;28;20232;-83
2022/03/27 05:36:50;;;;;;;30.13;21.48;;;5.50;99.90;;;;;;5013897;28;20216;-81
2022/03/27 05:39:19;;;;;;;27.80;21.15;;;5.50;99.90;;;;;;5012922;28;20240;-79
2022/03/27 05:41:46;;;;;;;29.45;22.58;;;5.60;99.90;;;;;;5013871;28;20248;-80
2022/03/27 05:44:12;;;;;;;27.50;22.50;;;5.60;99.90;;;;;;5009743;28;20205;-85
2022/03/27 05:46:39;;;;;;;29.27;22.83;;;5.60;99.90;;;;;;5006793;28;20201;-83
2022/03/27 05:49:06;;;;;;;27.92;21.95;;;5.50;99.90;;;;;;5007285;28;20268;-82
2022/03/27 05:51:33;;;;;;;31.48;23.50;;;5.40;99.90;;;;;;5008049;28;20554;-82
2022/03/27 05:53:59;;;;;;;29.05;22.30;;;5.60;99.90;;;;;;5008001;28;20205;-83
2022/03/27 05:56:28;;;;;;;29.38;23.20;;;5.40;99.90;;;;;;5008885;28;20232;-83
2022/03/27 05:58:54;;;;;;;31.38;23.52;;;5.40;99.90;;;;;;5008766;28;20208;-83
2022/03/27 06:01:21;;;;;;;36.65;24.13;;;5.50;99.90;;;;;;5008031;28;20228;-81
2022/03/27 06:03:48;;;;;;;28.75;21.90;;;5.40;99.90;;;;;;5012692;28;20244;-81
2022/03/27 06:06:14;;;;;;;32.05;23.08;;;5.40;99.90;;;;;;5013965;28;20205;-81
2022/03/27 06:08:41;;;;;;;33.38;25.30;;;5.40;99.90;;;;;;5013665;28;20209;-82
2022/03/27 06:11:07;;;;;;;29.58;22.88;;;5.30;99.90;;;;;;5008261;28;20216;-82
2022/03/27 06:13:35;;;;;;;31.02;22.88;;;5.30;99.90;;;;;;5007833;28;20233;-83
2022/03/27 06:16:02;;;;;;;29.00;21.42;;;5.30;99.90;;;;;;5010296;28;20205;-82
2022/03/27 06:18:29;;;;;;;27.30;22.80;;;5.30;99.90;;;;;;5013836;28;20209;-81
2022/03/27 06:20:55;;;;;;;28.10;21.48;;;5.30;99.90;;;;;;5013448;28;20277;-82
2022/03/27 06:23:22;;;;;;;27.08;21.50;;;5.30;99.90;;;;;;5009958;28;20229;-82
2022/03/27 06:25:48;;;;;;;31.17;22.38;;;5.20;99.90;;;;;;5004536;28;20209;-83
2022/03/27 06:28:15;;;;;;;26.05;22.00;;;5.30;99.90;;;;;;5007022;28;20212;-84
2022/03/27 06:30:43;;;;;;;29.35;23.05;;;5.30;99.90;;;;;;5007931;28;20201;-84
2022/03/27 06:33:09;;;;;;;27.23;21.27;;;5.50;99.90;;;;;;5009232;28;20229;-82
2022/03/27 06:35:37;;;;;;;28.50;24.60;;;5.50;99.90;;;;;;5015242;28;20205;-81
2022/03/27 06:38:04;;;;;;;26.30;22.73;;;5.50;99.90;;;;;;5016506;28;20212;-84
2022/03/27 06:40:30;;;;;;;23.58;20.58;;;5.50;99.90;;;;;;5012555;28;20222;-80
2022/03/27 06:42:57;;;;;;;30.38;23.23;;;5.50;99.90;;;;;;5009145;28;20236;-82
2022/03/27 06:45:24;;;;;;;31.88;23.80;;;5.40;99.90;;;;;;5010116;28;20216;-82
2022/03/27 06:47:52;;;;;;;33.05;24.25;;;5.40;99.90;;;;;;5007829;28;20205;-83
2022/03/27 06:50:21;;;;;;;26.15;21.95;;;5.40;99.90;;;;;;5007345;28;20205;-83
2022/03/27 06:52:48;;;;;;;24.48;20.98;;;5.40;99.90;;;;;;5007009;28;20324;-82
2022/03/27 06:55:16;;;;;;;30.55;23.08;;;5.40;99.90;;;;;;5007557;28;20232;-82
2022/03/27 06:57:43;;;;;;;29.15;22.90;;;5.60;99.90;;;;;;5006687;28;20205;-83
2022/03/27 07:03:06;;;;;;;27.52;21.80;;;5.90;99.90;;;;;;5006589;28;20352;-82
2022/03/27 07:05:36;;;;;;;25.67;21.42;;;5.90;99.90;;;;;;5011674;28;20184;-83
2022/03/27 07:08:04;;;;;;;25.83;20.90;;;5.90;99.90;;;;;;5011743;28;20627;-82
2022/03/27 07:10:31;;;;;;;24.00;19.52;;;6.00;99.90;;;;;;5008220;28;20278;-81
2022/03/27 07:12:57;;;;;;;27.67;20.88;;;6.00;99.90;;;;;;5017019;23;20291;-79
2022/03/27 07:15:25;;;;;;;27.98;22.17;;;6.10;99.90;;;;;;4996997;28;20205;-78
2022/03/27 07:17:53;;;;;;;26.55;22.50;;;6.20;99.90;;;;;;4995478;28;20209;-79
2022/03/27 07:20:24;;;;;;;28.20;23.30;;;6.30;99.90;;;;;;4996770;28;20209;-79
2022/03/27 07:22:52;;;;;;;26.58;21.52;;;6.30;99.90;;;;;;4996804;28;20237;-78
2022/03/27 07:25:23;;;;;;;28.95;22.20;;;6.40;99.90;;;;;;4994981;28;20273;-78
2022/03/27 07:27:49;;;;;;;24.20;20.25;;;6.60;99.90;;;;;;4995956;28;20186;-79
2022/03/27 07:30:17;;;;;;;30.40;22.80;;;6.70;99.90;;;;;;5004207;28;20206;-79
2022/03/27 07:32:44;;;;;;;32.92;22.95;;;6.80;99.90;;;;;;5006347;28;20283;-78
2022/03/27 07:35:14;;;;;;;26.00;21.27;;;7.00;99.90;;;;;;5010049;28;20212;-79
2022/03/27 07:37:43;;;;;;;28.38;22.00;;;7.10;99.90;;;;;;5010031;28;20216;-79
2022/03/27 07:40:14;;;;;;;26.38;21.98;;;7.20;99.90;;;;;;5001712;28;20213;-78
2022/03/27 07:42:46;;;;;;;32.22;24.45;;;7.30;99.90;;;;;;5000851;28;20255;-78
2022/03/27 07:45:14;;;;;;;28.90;23.80;;;7.30;99.90;;;;;;4999428;28;20186;-79
2022/03/27 07:47:41;;;;;;;29.77;23.20;;;7.40;99.90;;;;;;4998269;28;20675;-79
2022/03/27 07:50:09;;;;;;;29.80;24.10;;;7.60;99.90;;;;;;5000692;28;20423;-80
2022/03/27 07:52:36;;;;;;;28.73;23.25;;;7.70;99.90;;;;;;4999883;28;20225;-80
2022/03/27 07:55:09;;;;;;;24.67;20.33;;;7.80;99.90;;;;;;5005317;28;20207;-79
2022/03/27 07:57:35;;;;;;;25.63;21.80;;;7.90;99.90;;;;;;5010373;28;20441;-79
2022/03/27 08:00:03;;;;;;;27.90;20.90;;;8.00;99.90;;;;;;5001801;28;20420;-80
2022/03/27 08:02:30;;;;;;;26.80;20.50;;;8.20;99.90;;;;;;4997348;28;20485;-79
2022/03/27 08:04:57;;;;;;;22.53;17.33;;;8.40;99.90;;;;;;4998781;28;20484;-80
2022/03/27 08:07:23;;;;;;;25.80;18.93;;;8.60;99.90;;;;;;4998742;28;20481;-79
2022/03/27 08:09:50;;;;;;;28.23;19.80;;;8.70;99.90;;;;;;5000658;28;20435;-79
2022/03/27 08:12:20;;;;;;;31.77;20.43;;;8.70;99.90;;;;;;5000307;28;20473;-78
2022/03/27 08:14:49;;;;;;;24.60;18.47;;;8.70;99.90;;;;;;5004123;28;20418;-78
2022/03/27 08:17:17;;;;;;;24.50;19.60;;;8.80;99.90;;;;;;5005909;28;20426;-79
2022/03/27 08:19:47;;;;;;;27.83;19.77;;;8.90;99.90;;;;;;5001059;28;20451;-80
2022/03/27 08:22:14;;;;;;;23.57;18.97;;;9.50;99.90;;;;;;5001472;28;20820;-79
2022/03/27 08:24:41;;;;;;;21.37;17.53;;;9.10;99.90;;;;;;5001573;28;20454;-79
2022/03/27 08:27:08;;;;;;;23.57;18.23;;;9.20;99.90;;;;;;5002590;28;20453;-80
2022/03/27 08:29:41;;;;;;;21.53;18.53;;;9.40;99.90;;;;;;5003502;28;20502;-79
2022/03/27 08:32:09;;;;;;;22.30;18.50;;;9.50;92.10;;;;;;5002098;28;20457;-80
2022/03/27 08:34:38;;;;;;;23.27;19.47;;;9.40;46.20;;;;;;5002197;28;20505;-79
2022/03/27 08:37:06;;;;;;;23.50;18.40;;;9.50;1.70;;;;;;5015526;28;20456;-78
2022/03/27 08:39:33;;;;;;;21.30;18.53;;;9.70;1.00;;;;;;5016426;28;20431;-79
2022/03/27 08:42:00;;;;;;;22.73;19.93;;;9.80;1.00;;;;;;5007735;28;20437;-80
2022/03/27 08:44:27;;;;;;;27.07;20.93;;;9.90;1.00;;;;;;5009216;28;20833;-80
2022/03/27 08:46:57;;;;;;;19.80;16.73;;;10.00;1.00;;;;;;5002240;28;20489;-79
2022/03/27 08:49:37;;;;;;;22.27;17.60;;;10.10;1.00;;;;;;5003404;28;20473;-80
2022/03/27 08:52:29;;;;;;;21.00;16.50;;;10.00;1.00;;;;;;5001219;28;20952;-81
2022/03/27 08:55:09;;;;;;;20.53;16.97;;;10.10;99.90;;;;;;5002118;28;20439;-80
2022/03/27 08:57:53;;;;;;;20.47;17.27;;;10.20;99.90;;;;;;5003199;28;20495;-79
2022/03/27 09:00:21;;;;;;;20.70;14.40;;;10.40;99.90;;;;;;5001496;28;20908;-79
2022/03/27 09:02:49;;;;;;;17.90;14.80;;;10.50;99.90;;;;;;5001690;28;20499;-80
2022/03/27 09:05:17;;;;;;;16.20;13.43;;;10.50;99.90;;;;;;5002117;28;20530;-78
2022/03/27 09:07:43;;;;;;;15.60;13.10;;;10.70;99.90;;;;;;5003718;28;20844;-79
2022/03/27 09:10:12;;;;;;;16.23;13.33;;;10.90;1.00;;;;;;5003529;28;20456;-80
2022/03/27 09:12:39;;;;;;;17.43;13.67;;;10.80;99.90;;;;;;5000621;28;20476;-79
2022/03/27 09:15:08;;;;;;;14.60;12.97;;;11.00;99.90;;;;;;5001901;28;20912;-78
2022/03/27 09:17:56;;;;;;;14.70;13.20;;;11.00;1.00;;;;;;5005449;28;20452;-78
2022/03/27 09:20:38;;;;;;;13.80;11.53;;;11.20;99.90;;;;;;5010745;28;20456;-78
2022/03/27 09:23:17;;;;;;;12.80;11.47;;;11.30;1.00;;;;;;5006425;28;20494;-78
2022/03/27 09:25:46;;;;;;;14.00;11.40;;;11.30;1.00;;;;;;5005335;28;20448;-77
2022/03/27 09:28:13;;;;;;;14.10;12.40;;;11.30;99.90;;;;;;5006717;28;20449;-78
2022/03/27 09:30:39;;;;;;;15.00;10.90;;;11.40;26.70;;;;;;4996550;28;20510;-78
2022/03/27 09:33:07;;;;;;;12.53;11.20;;;11.50;1.00;;;;;;4998305;28;20465;-79
2022/03/27 09:35:36;;;;;;;15.50;11.40;;;11.70;94.80;;;;;;5000120;28;20444;-79
2022/03/27 09:38:13;;;;;;;15.23;10.40;;;11.80;1.00;;;;;;5000495;28;20484;-78
2022/03/27 09:40:39;;;;;;;13.37;10.90;;;11.90;80.10;;;;;;5001098;28;20436;-79
2022/03/27 09:43:11;;;;;;;12.40;10.03;;;11.70;1.00;;;;;;5001744;28;20488;-78
2022/03/27 09:45:37;;;;;;;12.50;10.60;;;11.70;1.00;;;;;;5002930;28;20487;-79
2022/03/27 09:48:10;;;;;;;12.20;10.73;;;11.70;87.70;;;;;;5002569;28;20531;-79
2022/03/27 09:50:38;;;;;;;13.87;12.40;;;11.90;1.00;;;;;;4997710;28;20499;-79
2022/03/27 09:53:26;;;;;;;11.43;10.13;;;12.00;99.90;;;;;;4997907;28;20515;-78
2022/03/27 09:55:54;;;;;;;23.80;11.33;;;12.10;1.00;;;;;;5000558;28;21018;-79
2022/03/27 09:58:35;;;;;;;12.17;10.10;;;12.30;99.90;;;;;;4998537;28;20456;-79
2022/03/27 10:01:10;;;;;;;11.70;10.10;;;12.10;99.90;;;;;;4999447;28;20459;-79
2022/03/27 10:03:57;;;;;;;12.00;10.50;;;12.00;99.90;;;;;;5000403;28;20740;-78
2022/03/27 10:06:29;;;;;;;10.37;9.27;;;11.90;99.90;;;;;;4998619;28;20573;-78
2022/03/27 10:08:56;;;;;;;14.63;10.40;;;12.20;99.90;;;;;;5003188;28;20862;-79
2022/03/27 10:11:23;;;;;;;13.90;9.60;;;12.30;58.30;;;;;;5001656;28;20982;-79
2022/03/27 10:13:53;;;;;;;11.57;8.60;;;12.30;48.00;;;;;;4998573;28;20998;-78
2022/03/27 10:16:23;;;;;;;10.90;8.40;;;12.30;30.80;;;;;;4998359;28;20431;-79
2022/03/27 10:18:54;;;;;;;11.63;9.17;;;12.50;99.90;;;;;;4999009;28;20448;-79
2022/03/27 10:21:24;;;;;;;12.17;9.27;;;12.60;1.00;;;;;;4999120;28;20440;-78
2022/03/27 10:23:55;;;;;;;10.97;8.97;;;12.40;1.00;;;;;;4998921;28;20488;-79
2022/03/27 10:26:22;;;;;;;9.80;8.80;;;12.30;1.00;;;;;;5004000;28;20444;-78
2022/03/27 10:28:50;;;;;;;11.03;9.33;;;12.50;12.70;;;;;;5003615;28;20460;-78
2022/03/27 10:31:18;;;;;;;10.77;8.80;;;12.50;1.00;;;;;;5004327;28;21031;-79
2022/03/27 10:33:46;;;;;;;11.23;9.17;;;12.60;1.00;;;;;;5004866;28;20472;-79
2022/03/27 10:36:20;;;;;;;11.20;9.30;;;12.70;1.00;;;;;;5000352;28;20457;-78
2022/03/27 10:38:54;;;;;;;10.30;9.20;;;12.60;1.00;;;;;;5000555;28;20466;-79
2022/03/27 10:41:34;;;;;;;13.47;10.70;;;12.70;1.00;;;;;;5002352;28;20443;-80
2022/03/27 10:44:07;;;;;;;13.17;10.20;;;12.90;1.00;;;;;;4998134;28;20523;-78
2022/03/27 10:46:34;;;;;;;13.77;9.73;;;13.00;1.00;;;;;;4997127;28;20491;-79
2022/03/27 10:49:19;;;;;;;8.83;7.93;;;13.10;1.00;;;;;;4997048;28;20459;-79
2022/03/27 10:51:48;;;;;;;10.03;8.93;;;13.30;1.00;;;;;;4996640;28;20437;-79
2022/03/27 10:54:16;;;;;;;10.63;8.60;;;13.40;17.00;;;;;;4997435;28;20492;-79
2022/03/27 10:56:45;;;;;;;11.83;10.00;;;13.60;1.00;;;;;;4997548;28;20449;-79
2022/03/27 10:59:14;;;;;;;10.90;8.80;;;13.70;1.00;;;;;;4996647;28;20535;-79
2022/03/27 11:01:44;;;;;;;11.03;8.87;;;13.80;1.00;;;;;;4997082;28;20792;-79
2022/03/27 11:04:12;;;;;;;9.63;8.63;;;13.80;1.00;;;;;;4998588;28;20496;-78
2022/03/27 11:06:42;;;;;;;10.57;8.80;;;13.80;1.00;;;;;;4998719;28;20460;-79
2022/03/27 11:09:12;;;;;;;8.53;7.50;;;13.70;1.00;;;;;;5000074;28;20448;-79
2022/03/27 11:11:54;;;;;;;9.13;7.90;;;13.60;8.50;;;;;;4998157;28;20428;-78
2022/03/27 11:15:00;;;;;;;10.57;8.63;;;13.60;1.00;;;;;;4998348;28;20456;-79
2022/03/27 11:17:52;;;;;;;7.47;6.40;;;13.70;1.00;;;;;;5003531;28;20602;-79
2022/03/27 11:20:47;;;;;;;9.20;7.43;;;13.80;1.00;;;;;;4999825;28;20483;-78
2022/03/27 11:23:28;;;;;;;10.50;7.60;;;13.90;1.00;;;;;;5002176;28;20524;-78
2022/03/27 11:25:57;;;;;;;9.37;6.93;;;13.90;1.00;;;;;;5004168;28;20432;-78
2022/03/27 11:28:26;;;;;;;7.03;6.33;;;13.70;1.00;;;;;;5003739;28;20524;-79
2022/03/27 11:31:25;;;;;;;6.97;5.90;;;13.70;1.00;;;;;;5005178;28;20452;-79
2022/03/27 11:34:17;;;;;;;8.23;6.47;;;13.80;1.00;;;;;;5004458;28;20472;-79
2022/03/27 11:36:48;;;;;;;12.00;7.90;;;13.80;1.00;;;;;;5002295;28;21011;-79
2022/03/27 11:39:33;;;;;;;10.27;7.47;;;13.70;1.00;;;;;;5003538;28;20464;-79
2022/03/27 11:42:23;;;;;;;7.47;6.67;;;13.90;1.00;;;;;;5000948;28;20429;-79
2022/03/27 11:45:09;;;;;;;7.50;6.80;;;13.90;1.00;;;;;;5001024;28;20479;-80
2022/03/27 11:47:37;;;;;;;8.37;7.50;;;13.90;1.00;;;;;;5002877;28;20424;-79
2022/03/27 11:50:05;;;;;;;7.50;6.80;;;13.90;1.00;;;;;;5002317;28;20448;-80
2022/03/27 11:52:33;;;;;;;9.27;7.30;;;13.90;1.00;;;;;;5004171;28;20468;-78
2022/03/27 11:55:05;;;;;;;7.13;6.40;;;14.00;1.00;;;;;;5002914;28;20448;-79
2022/03/27 11:57:47;;;;;;;7.70;6.80;;;14.10;1.00;;;;;;5001657;28;20456;-79
2022/03/27 12:00:16;;;;;;;9.40;6.00;;;14.00;1.00;;;;;;5002387;28;20443;-78
2022/03/27 12:02:44;;;;;;;6.90;6.00;;;13.90;1.00;;;;;;5001237;28;20560;-79
2022/03/27 12:05:11;;;;;;;5.97;5.47;;;14.00;1.00;;;;;;5001267;28;20519;-79
2022/03/27 12:07:52;;;;;;;6.27;5.67;;;14.30;1.00;;;;;;5001608;28;20897;-79
2022/03/27 12:10:20;;;;;;;6.30;5.37;;;14.40;1.00;;;;;;5001355;28;20487;-80
2022/03/27 12:13:00;;;;;;;6.97;5.70;;;14.40;1.00;;;;;;5001062;28;20472;-80
2022/03/27 12:15:42;;;;;;;6.80;5.73;;;14.40;1.00;;;;;;5000823;28;20448;-79
2022/03/27 12:18:11;;;;;;;7.30;6.60;;;14.40;1.00;;;;;;4997951;28;20451;-79
2022/03/27 12:20:46;;;;;;;8.00;5.67;;;14.10;1.00;;;;;;5002085;28;20440;-78
2022/03/27 12:23:25;;;;;;;7.40;6.70;;;14.20;1.00;;;;;;5003996;28;20467;-79
2022/03/27 12:29:40;;;;;;;8.30;6.20;;;14.40;1.00;;;;;;5004325;28;20483;-79
2022/03/27 12:32:03;;;;;;;7.60;6.20;;;14.30;1.00;;;;;;5006671;28;20508;-78
2022/03/27 12:34:31;;;;;;;6.43;5.83;;;14.30;1.00;;;;;;5006372;28;20448;-80
2022/03/27 12:37:10;;;;;;;7.27;6.57;;;14.30;1.00;;;;;;5003803;28;20531;-79
2022/03/27 12:39:38;;;;;;;7.03;6.33;;;14.20;1.00;;;;;;5004261;28;20452;-79
2022/03/27 12:42:06;;;;;;;7.87;6.07;;;14.70;1.00;;;;;;5013721;28;20449;-79
2022/03/27 12:44:50;;;;;;;6.40;5.40;;;14.50;1.00;;;;;;5014082;28;20484;-79
2022/03/27 12:47:17;;;;;;;7.40;6.70;;;14.60;1.00;;;;;;5014231;28;20432;-80
2022/03/27 12:49:50;;;;;;;7.17;6.47;;;14.60;1.00;;;;;;5010982;28;20449;-79
2022/03/27 12:52:17;;;;;;;8.00;5.00;;;14.70;1.00;;;;;;5010781;28;20475;-79
2022/03/27 12:54:59;;;;;;;6.70;5.40;;;14.70;1.00;;;;;;5013664;28;20440;-79
2022/03/27 12:57:47;;;;;;;5.77;5.17;;;14.70;1.00;;;;;;5015276;28;20467;-79
2022/03/27 13:00:16;;;;;;;5.63;5.00;;;14.70;1.00;;;;;;5012079;28;20425;-78